sensor_id;sensor_type;location;lat;lon;timestamp;P1;durP1;ratioP1;P2;durP2;ratioP2
76417;SDS011;65250;47.602;19.002;2023-03-17T00:01:49;2.88;;;1.50;;
76417;SDS011;65250;47.602;19.002;2023-03-17T00:04:20;4.00;;;1.50;;
76417;SDS011;65250;47.602;19.002;2023-03-17T00:06:49;5.00;;;1.65;;
76417;SDS011;65250;47.602;19.002;2023-03-17T00:09:17;8.43;;;2.20;;
76417;SDS011;65250;47.602;19.002;2023-03-17T00:11:45;5.18;;;1.60;;
76417;SDS011;65250;47.602;19.002;2023-03-17T00:14:12;4.05;;;1.52;;
76417;SDS011;65250;47.602;19.002;2023-03-17T00:16:40;5.23;;;2.00;;
76417;SDS011;65250;47.602;19.002;2023-03-17T00:19:15;5.30;;;2.10;;
76417;SDS011;65250;47.602;19.002;2023-03-17T00:21:43;4.50;;;1.67;;
76417;SDS011;65250;47.602;19.002;2023-03-17T00:24:12;3.65;;;1.55;;
76417;SDS011;65250;47.602;19.002;2023-03-17T00:26:40;6.93;;;1.70;;
76417;SDS011;65250;47.602;19.002;2023-03-17T00:29:07;3.97;;;1.57;;
76417;SDS011;65250;47.602;19.002;2023-03-17T00:31:35;6.35;;;1.60;;
76417;SDS011;65250;47.602;19.002;2023-03-17T00:34:02;6.90;;;1.77;;
76417;SDS011;65250;47.602;19.002;2023-03-17T00:36:29;4.22;;;1.40;;
76417;SDS011;65250;47.602;19.002;2023-03-17T00:38:57;6.05;;;1.90;;
76417;SDS011;65250;47.602;19.002;2023-03-17T00:41:24;3.37;;;1.30;;
76417;SDS011;65250;47.602;19.002;2023-03-17T00:43:52;7.35;;;1.80;;
76417;SDS011;65250;47.602;19.002;2023-03-17T00:46:29;4.70;;;1.60;;
76417;SDS011;65250;47.602;19.002;2023-03-17T00:49:09;4.90;;;1.55;;
76417;SDS011;65250;47.602;19.002;2023-03-17T00:51:41;5.55;;;1.58;;
76417;SDS011;65250;47.602;19.002;2023-03-17T00:54:09;4.87;;;2.00;;
76417;SDS011;65250;47.602;19.002;2023-03-17T00:56:37;4.35;;;1.40;;
76417;SDS011;65250;47.602;19.002;2023-03-17T00:59:08;5.75;;;1.98;;
76417;SDS011;65250;47.602;19.002;2023-03-17T01:01:39;4.00;;;1.80;;
76417;SDS011;65250;47.602;19.002;2023-03-17T01:04:08;6.32;;;1.75;;
76417;SDS011;65250;47.602;19.002;2023-03-17T01:06:36;5.27;;;2.30;;
76417;SDS011;65250;47.602;19.002;2023-03-17T01:09:03;4.10;;;1.50;;
76417;SDS011;65250;47.602;19.002;2023-03-17T01:11:30;5.13;;;2.05;;
76417;SDS011;65250;47.602;19.002;2023-03-17T01:13:58;3.35;;;1.60;;
76417;SDS011;65250;47.602;19.002;2023-03-17T01:16:24;6.93;;;2.55;;
76417;SDS011;65250;47.602;19.002;2023-03-17T01:18:52;5.13;;;1.87;;
76417;SDS011;65250;47.602;19.002;2023-03-17T01:21:19;7.07;;;2.10;;
76417;SDS011;65250;47.602;19.002;2023-03-17T01:23:45;4.07;;;2.10;;
76417;SDS011;65250;47.602;19.002;2023-03-17T01:26:12;4.28;;;1.73;;
76417;SDS011;65250;47.602;19.002;2023-03-17T01:28:39;4.05;;;2.00;;
76417;SDS011;65250;47.602;19.002;2023-03-17T01:31:06;8.17;;;2.00;;
76417;SDS011;65250;47.602;19.002;2023-03-17T01:33:32;5.90;;;2.58;;
76417;SDS011;65250;47.602;19.002;2023-03-17T01:36:00;4.63;;;1.98;;
76417;SDS011;65250;47.602;19.002;2023-03-17T01:38:27;4.63;;;1.95;;
76417;SDS011;65250;47.602;19.002;2023-03-17T01:40:55;7.85;;;2.45;;
76417;SDS011;65250;47.602;19.002;2023-03-17T01:43:23;3.00;;;1.87;;
76417;SDS011;65250;47.602;19.002;2023-03-17T01:51:10;5.20;;;1.98;;
76417;SDS011;65250;47.602;19.002;2023-03-17T01:53:40;5.10;;;1.77;;
76417;SDS011;65250;47.602;19.002;2023-03-17T01:56:07;4.57;;;1.83;;
76417;SDS011;65250;47.602;19.002;2023-03-17T01:58:34;4.97;;;1.90;;
76417;SDS011;65250;47.602;19.002;2023-03-17T02:01:01;7.60;;;1.67;;
76417;SDS011;65250;47.602;19.002;2023-03-17T02:03:28;7.00;;;2.20;;
76417;SDS011;65250;47.602;19.002;2023-03-17T02:05:55;6.22;;;1.70;;
76417;SDS011;65250;47.602;19.002;2023-03-17T02:08:23;7.80;;;1.80;;
76417;SDS011;65250;47.602;19.002;2023-03-17T02:10:50;4.38;;;1.70;;
76417;SDS011;65250;47.602;19.002;2023-03-17T02:13:17;9.90;;;1.80;;
76417;SDS011;65250;47.602;19.002;2023-03-17T02:15:45;3.85;;;1.02;;
76417;SDS011;65250;47.602;19.002;2023-03-17T02:18:14;4.97;;;1.50;;
76417;SDS011;65250;47.602;19.002;2023-03-17T02:23:09;3.13;;;1.45;;
76417;SDS011;65250;47.602;19.002;2023-03-17T02:25:37;9.30;;;2.03;;
76417;SDS011;65250;47.602;19.002;2023-03-17T02:28:06;3.00;;;1.75;;
76417;SDS011;65250;47.602;19.002;2023-03-17T02:30:36;5.75;;;1.63;;
76417;SDS011;65250;47.602;19.002;2023-03-17T02:33:03;6.03;;;2.30;;
76417;SDS011;65250;47.602;19.002;2023-03-17T02:35:29;5.28;;;1.70;;
76417;SDS011;65250;47.602;19.002;2023-03-17T02:37:56;5.53;;;1.58;;
76417;SDS011;65250;47.602;19.002;2023-03-17T02:40:23;4.93;;;1.83;;
76417;SDS011;65250;47.602;19.002;2023-03-17T02:42:50;7.78;;;2.42;;
76417;SDS011;65250;47.602;19.002;2023-03-17T02:45:17;5.83;;;2.20;;
76417;SDS011;65250;47.602;19.002;2023-03-17T02:47:44;4.32;;;1.98;;
76417;SDS011;65250;47.602;19.002;2023-03-17T02:50:15;5.32;;;1.92;;
76417;SDS011;65250;47.602;19.002;2023-03-17T02:52:44;5.28;;;2.13;;
76417;SDS011;65250;47.602;19.002;2023-03-17T02:55:10;2.95;;;1.75;;
76417;SDS011;65250;47.602;19.002;2023-03-17T02:57:37;6.47;;;1.67;;
76417;SDS011;65250;47.602;19.002;2023-03-17T03:00:04;5.40;;;2.20;;
76417;SDS011;65250;47.602;19.002;2023-03-17T03:02:31;4.07;;;1.50;;
76417;SDS011;65250;47.602;19.002;2023-03-17T03:04:58;6.13;;;1.50;;
76417;SDS011;65250;47.602;19.002;2023-03-17T03:07:25;4.38;;;1.70;;
76417;SDS011;65250;47.602;19.002;2023-03-17T03:09:52;3.33;;;1.50;;
76417;SDS011;65250;47.602;19.002;2023-03-17T03:12:18;6.53;;;1.75;;
76417;SDS011;65250;47.602;19.002;2023-03-17T03:14:45;3.97;;;1.45;;
76417;SDS011;65250;47.602;19.002;2023-03-17T03:17:13;4.93;;;1.60;;
76417;SDS011;65250;47.602;19.002;2023-03-17T03:19:40;4.45;;;1.60;;
76417;SDS011;65250;47.602;19.002;2023-03-17T03:22:07;2.03;;;1.00;;
76417;SDS011;65250;47.602;19.002;2023-03-17T03:24:34;3.25;;;1.27;;
76417;SDS011;65250;47.602;19.002;2023-03-17T03:27:01;5.35;;;1.55;;
76417;SDS011;65250;47.602;19.002;2023-03-17T03:29:28;3.30;;;0.93;;
76417;SDS011;65250;47.602;19.002;2023-03-17T03:31:55;4.15;;;1.67;;
76417;SDS011;65250;47.602;19.002;2023-03-17T03:34:21;6.07;;;1.80;;
76417;SDS011;65250;47.602;19.002;2023-03-17T03:36:48;3.22;;;1.35;;
76417;SDS011;65250;47.602;19.002;2023-03-17T03:39:15;4.65;;;1.17;;
76417;SDS011;65250;47.602;19.002;2023-03-17T03:41:42;5.05;;;1.60;;
76417;SDS011;65250;47.602;19.002;2023-03-17T03:44:08;2.40;;;1.27;;
76417;SDS011;65250;47.602;19.002;2023-03-17T03:46:35;6.83;;;1.67;;
76417;SDS011;65250;47.602;19.002;2023-03-17T03:49:02;3.60;;;1.35;;
76417;SDS011;65250;47.602;19.002;2023-03-17T03:51:29;4.95;;;1.40;;
76417;SDS011;65250;47.602;19.002;2023-03-17T03:53:56;4.50;;;1.52;;
76417;SDS011;65250;47.602;19.002;2023-03-17T03:56:23;3.03;;;0.90;;
76417;SDS011;65250;47.602;19.002;2023-03-17T03:58:49;2.83;;;1.20;;
76417;SDS011;65250;47.602;19.002;2023-03-17T04:01:16;5.28;;;1.20;;
76417;SDS011;65250;47.602;19.002;2023-03-17T04:03:44;3.33;;;1.48;;
76417;SDS011;65250;47.602;19.002;2023-03-17T04:06:12;4.38;;;1.55;;
76417;SDS011;65250;47.602;19.002;2023-03-17T04:08:39;4.25;;;1.45;;
76417;SDS011;65250;47.602;19.002;2023-03-17T04:11:06;5.27;;;1.20;;
76417;SDS011;65250;47.602;19.002;2023-03-17T04:13:34;4.07;;;1.58;;
76417;SDS011;65250;47.602;19.002;2023-03-17T04:16:01;4.47;;;1.50;;
76417;SDS011;65250;47.602;19.002;2023-03-17T04:18:28;3.42;;;1.38;;
76417;SDS011;65250;47.602;19.002;2023-03-17T04:20:57;4.25;;;1.15;;
76417;SDS011;65250;47.602;19.002;2023-03-17T04:23:23;3.10;;;1.23;;
76417;SDS011;65250;47.602;19.002;2023-03-17T04:25:51;2.45;;;1.15;;
76417;SDS011;65250;47.602;19.002;2023-03-17T04:28:18;5.68;;;1.50;;
76417;SDS011;65250;47.602;19.002;2023-03-17T04:30:45;2.25;;;1.00;;
76417;SDS011;65250;47.602;19.002;2023-03-17T04:33:12;3.28;;;1.30;;
76417;SDS011;65250;47.602;19.002;2023-03-17T04:35:39;5.13;;;1.40;;
76417;SDS011;65250;47.602;19.002;2023-03-17T04:38:07;4.35;;;1.60;;
76417;SDS011;65250;47.602;19.002;2023-03-17T04:40:34;5.45;;;1.48;;
76417;SDS011;65250;47.602;19.002;2023-03-17T04:43:01;3.85;;;1.52;;
76417;SDS011;65250;47.602;19.002;2023-03-17T04:45:29;6.18;;;1.27;;
76417;SDS011;65250;47.602;19.002;2023-03-17T04:47:55;4.07;;;1.50;;
76417;SDS011;65250;47.602;19.002;2023-03-17T04:50:22;3.10;;;1.55;;
76417;SDS011;65250;47.602;19.002;2023-03-17T04:52:49;8.05;;;1.90;;
76417;SDS011;65250;47.602;19.002;2023-03-17T04:55:16;4.60;;;1.63;;
76417;SDS011;65250;47.602;19.002;2023-03-17T04:57:43;4.43;;;1.63;;
76417;SDS011;65250;47.602;19.002;2023-03-17T05:00:10;4.20;;;1.77;;
76417;SDS011;65250;47.602;19.002;2023-03-17T05:02:38;4.07;;;1.80;;
76417;SDS011;65250;47.602;19.002;2023-03-17T05:05:04;8.10;;;1.50;;
76417;SDS011;65250;47.602;19.002;2023-03-17T05:07:31;4.63;;;1.65;;
76417;SDS011;65250;47.602;19.002;2023-03-17T05:09:59;3.15;;;1.27;;
76417;SDS011;65250;47.602;19.002;2023-03-17T05:12:27;6.20;;;1.40;;
76417;SDS011;65250;47.602;19.002;2023-03-17T05:14:54;4.95;;;1.70;;
76417;SDS011;65250;47.602;19.002;2023-03-17T05:17:21;3.90;;;1.58;;
76417;SDS011;65250;47.602;19.002;2023-03-17T05:19:47;2.85;;;1.60;;
76417;SDS011;65250;47.602;19.002;2023-03-17T05:22:14;3.42;;;1.45;;
76417;SDS011;65250;47.602;19.002;2023-03-17T05:24:41;4.73;;;2.43;;
76417;SDS011;65250;47.602;19.002;2023-03-17T05:27:08;6.40;;;2.38;;
76417;SDS011;65250;47.602;19.002;2023-03-17T05:29:35;4.05;;;1.75;;
76417;SDS011;65250;47.602;19.002;2023-03-17T05:32:02;4.43;;;2.10;;
76417;SDS011;65250;47.602;19.002;2023-03-17T05:34:28;6.93;;;2.35;;
76417;SDS011;65250;47.602;19.002;2023-03-17T05:36:56;4.37;;;2.40;;
76417;SDS011;65250;47.602;19.002;2023-03-17T05:39:23;5.00;;;1.90;;
76417;SDS011;65250;47.602;19.002;2023-03-17T05:41:50;8.63;;;4.20;;
76417;SDS011;65250;47.602;19.002;2023-03-17T05:44:16;7.75;;;4.35;;
76417;SDS011;65250;47.602;19.002;2023-03-17T05:46:43;7.13;;;3.70;;
76417;SDS011;65250;47.602;19.002;2023-03-17T05:49:10;12.07;;;4.57;;
76417;SDS011;65250;47.602;19.002;2023-03-17T05:51:38;6.10;;;2.80;;
76417;SDS011;65250;47.602;19.002;2023-03-17T05:54:04;11.57;;;3.72;;
76417;SDS011;65250;47.602;19.002;2023-03-17T05:56:31;7.13;;;3.30;;
76417;SDS011;65250;47.602;19.002;2023-03-17T05:58:59;7.05;;;4.70;;
76417;SDS011;65250;47.602;19.002;2023-03-17T06:01:27;11.60;;;5.70;;
76417;SDS011;65250;47.602;19.002;2023-03-17T06:03:54;8.70;;;4.68;;
76417;SDS011;65250;47.602;19.002;2023-03-17T06:06:21;10.27;;;4.80;;
76417;SDS011;65250;47.602;19.002;2023-03-17T06:08:49;10.82;;;5.13;;
76417;SDS011;65250;47.602;19.002;2023-03-17T06:11:17;8.15;;;4.10;;
76417;SDS011;65250;47.602;19.002;2023-03-17T06:13:46;13.50;;;4.80;;
76417;SDS011;65250;47.602;19.002;2023-03-17T06:16:13;10.88;;;4.30;;
76417;SDS011;65250;47.602;19.002;2023-03-17T06:18:39;8.15;;;4.20;;
76417;SDS011;65250;47.602;19.002;2023-03-17T06:21:06;10.52;;;4.57;;
76417;SDS011;65250;47.602;19.002;2023-03-17T06:23:33;10.65;;;5.15;;
76417;SDS011;65250;47.602;19.002;2023-03-17T06:26:00;14.67;;;5.63;;
76417;SDS011;65250;47.602;19.002;2023-03-17T06:28:27;18.98;;;5.28;;
76417;SDS011;65250;47.602;19.002;2023-03-17T06:30:53;15.50;;;6.20;;
76417;SDS011;65250;47.602;19.002;2023-03-17T06:33:20;17.20;;;6.53;;
76417;SDS011;65250;47.602;19.002;2023-03-17T06:35:47;22.60;;;6.90;;
76417;SDS011;65250;47.602;19.002;2023-03-17T06:38:14;15.13;;;8.20;;
76417;SDS011;65250;47.602;19.002;2023-03-17T06:40:40;18.10;;;8.90;;
76417;SDS011;65250;47.602;19.002;2023-03-17T06:43:07;19.15;;;10.05;;
76417;SDS011;65250;47.602;19.002;2023-03-17T06:45:34;20.42;;;9.70;;
76417;SDS011;65250;47.602;19.002;2023-03-17T06:48:01;19.67;;;9.48;;
76417;SDS011;65250;47.602;19.002;2023-03-17T06:50:29;20.97;;;9.00;;
76417;SDS011;65250;47.602;19.002;2023-03-17T06:53:00;19.27;;;9.43;;
76417;SDS011;65250;47.602;19.002;2023-03-17T06:55:27;23.65;;;9.85;;
76417;SDS011;65250;47.602;19.002;2023-03-17T06:57:55;26.42;;;9.50;;
76417;SDS011;65250;47.602;19.002;2023-03-17T07:00:24;18.73;;;8.80;;
76417;SDS011;65250;47.602;19.002;2023-03-17T07:02:51;13.33;;;7.73;;
76417;SDS011;65250;47.602;19.002;2023-03-17T07:05:19;10.93;;;6.25;;
76417;SDS011;65250;47.602;19.002;2023-03-17T07:07:48;14.80;;;6.80;;
76417;SDS011;65250;47.602;19.002;2023-03-17T07:10:16;13.75;;;6.07;;
76417;SDS011;65250;47.602;19.002;2023-03-17T07:12:43;9.20;;;5.28;;
76417;SDS011;65250;47.602;19.002;2023-03-17T07:15:10;8.70;;;4.53;;
76417;SDS011;65250;47.602;19.002;2023-03-17T07:17:38;12.32;;;4.40;;
76417;SDS011;65250;47.602;19.002;2023-03-17T07:20:05;10.38;;;4.47;;
76417;SDS011;65250;47.602;19.002;2023-03-17T07:22:32;7.15;;;3.78;;
76417;SDS011;65250;47.602;19.002;2023-03-17T07:24:59;16.20;;;3.75;;
76417;SDS011;65250;47.602;19.002;2023-03-17T07:27:26;11.37;;;4.23;;
76417;SDS011;65250;47.602;19.002;2023-03-17T07:29:52;8.63;;;3.35;;
76417;SDS011;65250;47.602;19.002;2023-03-17T07:32:19;7.60;;;3.03;;
76417;SDS011;65250;47.602;19.002;2023-03-17T07:34:46;7.25;;;3.05;;
76417;SDS011;65250;47.602;19.002;2023-03-17T07:37:13;6.53;;;3.33;;
76417;SDS011;65250;47.602;19.002;2023-03-17T07:39:40;8.37;;;3.03;;
76417;SDS011;65250;47.602;19.002;2023-03-17T07:42:08;6.15;;;2.65;;
76417;SDS011;65250;47.602;19.002;2023-03-17T07:44:37;6.68;;;2.90;;
76417;SDS011;65250;47.602;19.002;2023-03-17T07:47:07;7.40;;;3.00;;
76417;SDS011;65250;47.602;19.002;2023-03-17T07:49:34;6.63;;;3.33;;
76417;SDS011;65250;47.602;19.002;2023-03-17T07:52:08;7.33;;;3.43;;
76417;SDS011;65250;47.602;19.002;2023-03-17T07:54:35;9.27;;;3.13;;
76417;SDS011;65250;47.602;19.002;2023-03-17T07:57:03;8.93;;;3.30;;
76417;SDS011;65250;47.602;19.002;2023-03-17T07:59:31;7.72;;;3.35;;
76417;SDS011;65250;47.602;19.002;2023-03-17T08:01:58;6.85;;;2.90;;
76417;SDS011;65250;47.602;19.002;2023-03-17T08:04:26;10.20;;;3.80;;
76417;SDS011;65250;47.602;19.002;2023-03-17T08:06:53;9.65;;;3.35;;
76417;SDS011;65250;47.602;19.002;2023-03-17T08:09:20;8.50;;;3.92;;
76417;SDS011;65250;47.602;19.002;2023-03-17T08:11:47;8.10;;;3.47;;
76417;SDS011;65250;47.602;19.002;2023-03-17T08:14:15;7.78;;;3.70;;
76417;SDS011;65250;47.602;19.002;2023-03-17T08:16:41;6.90;;;3.27;;
76417;SDS011;65250;47.602;19.002;2023-03-17T08:20:23;6.60;;;3.42;;
76417;SDS011;65250;47.602;19.002;2023-03-17T08:24:04;9.45;;;3.80;;
76417;SDS011;65250;47.602;19.002;2023-03-17T08:27:51;6.38;;;3.80;;
76417;SDS011;65250;47.602;19.002;2023-03-17T08:30:18;11.20;;;3.30;;
76417;SDS011;65250;47.602;19.002;2023-03-17T08:32:46;11.77;;;4.20;;
76417;SDS011;65250;47.602;19.002;2023-03-17T08:35:13;9.45;;;4.18;;
76417;SDS011;65250;47.602;19.002;2023-03-17T08:37:44;9.60;;;4.22;;
76417;SDS011;65250;47.602;19.002;2023-03-17T08:40:14;5.43;;;3.55;;
76417;SDS011;65250;47.602;19.002;2023-03-17T08:42:45;12.65;;;4.45;;
76417;SDS011;65250;47.602;19.002;2023-03-17T08:45:14;6.90;;;4.20;;
76417;SDS011;65250;47.602;19.002;2023-03-17T08:47:44;8.38;;;4.82;;
76417;SDS011;65250;47.602;19.002;2023-03-17T08:50:16;8.27;;;4.03;;
76417;SDS011;65250;47.602;19.002;2023-03-17T08:52:45;10.77;;;4.65;;
76417;SDS011;65250;47.602;19.002;2023-03-17T08:55:14;7.70;;;4.93;;
76417;SDS011;65250;47.602;19.002;2023-03-17T08:57:42;8.03;;;4.50;;
76417;SDS011;65250;47.602;19.002;2023-03-17T09:00:13;11.18;;;4.70;;
76417;SDS011;65250;47.602;19.002;2023-03-17T09:02:41;8.32;;;4.38;;
76417;SDS011;65250;47.602;19.002;2023-03-17T09:05:10;9.93;;;4.30;;
76417;SDS011;65250;47.602;19.002;2023-03-17T09:07:39;8.85;;;4.43;;
76417;SDS011;65250;47.602;19.002;2023-03-17T09:10:07;6.90;;;3.80;;
76417;SDS011;65250;47.602;19.002;2023-03-17T09:12:36;6.38;;;3.65;;
76417;SDS011;65250;47.602;19.002;2023-03-17T09:15:04;8.27;;;4.38;;
76417;SDS011;65250;47.602;19.002;2023-03-17T09:17:32;11.25;;;3.75;;
76417;SDS011;65250;47.602;19.002;2023-03-17T09:19:59;6.88;;;3.75;;
76417;SDS011;65250;47.602;19.002;2023-03-17T09:22:26;10.27;;;4.00;;
76417;SDS011;65250;47.602;19.002;2023-03-17T09:24:56;5.90;;;3.90;;
76417;SDS011;65250;47.602;19.002;2023-03-17T09:27:23;6.82;;;3.70;;
76417;SDS011;65250;47.602;19.002;2023-03-17T09:29:50;6.68;;;2.90;;
76417;SDS011;65250;47.602;19.002;2023-03-17T09:32:17;4.20;;;2.55;;
76417;SDS011;65250;47.602;19.002;2023-03-17T09:34:44;5.17;;;2.67;;
76417;SDS011;65250;47.602;19.002;2023-03-17T09:37:11;6.65;;;2.28;;
76417;SDS011;65250;47.602;19.002;2023-03-17T09:39:39;4.75;;;2.10;;
76417;SDS011;65250;47.602;19.002;2023-03-17T09:42:07;2.58;;;1.90;;
76417;SDS011;65250;47.602;19.002;2023-03-17T09:47:42;4.43;;;2.20;;
76417;SDS011;65250;47.602;19.002;2023-03-17T09:50:31;5.25;;;2.60;;
76417;SDS011;65250;47.602;19.002;2023-03-17T09:53:05;5.57;;;2.65;;
76417;SDS011;65250;47.602;19.002;2023-03-17T09:55:41;7.43;;;2.58;;
76417;SDS011;65250;47.602;19.002;2023-03-17T09:58:09;3.78;;;2.40;;
76417;SDS011;65250;47.602;19.002;2023-03-17T10:00:37;5.83;;;2.70;;
76417;SDS011;65250;47.602;19.002;2023-03-17T10:03:05;5.93;;;2.53;;
76417;SDS011;65250;47.602;19.002;2023-03-17T10:05:34;4.70;;;2.80;;
76417;SDS011;65250;47.602;19.002;2023-03-17T10:14:02;4.93;;;2.70;;
76417;SDS011;65250;47.602;19.002;2023-03-17T10:16:40;5.50;;;2.70;;
76417;SDS011;65250;47.602;19.002;2023-03-17T10:19:31;5.38;;;2.38;;
76417;SDS011;65250;47.602;19.002;2023-03-17T10:22:05;4.00;;;2.53;;
76417;SDS011;65250;47.602;19.002;2023-03-17T10:24:41;3.55;;;2.55;;
76417;SDS011;65250;47.602;19.002;2023-03-17T10:27:10;4.60;;;2.57;;
76417;SDS011;65250;47.602;19.002;2023-03-17T10:29:40;5.43;;;2.42;;
76417;SDS011;65250;47.602;19.002;2023-03-17T10:32:08;4.00;;;2.50;;
76417;SDS011;65250;47.602;19.002;2023-03-17T10:34:37;8.18;;;2.75;;
76417;SDS011;65250;47.602;19.002;2023-03-17T10:37:07;3.83;;;2.50;;
76417;SDS011;65250;47.602;19.002;2023-03-17T10:39:40;5.50;;;2.77;;
76417;SDS011;65250;47.602;19.002;2023-03-17T10:42:12;4.70;;;2.05;;
76417;SDS011;65250;47.602;19.002;2023-03-17T10:44:56;4.88;;;2.90;;
76417;SDS011;65250;47.602;19.002;2023-03-17T10:47:28;4.07;;;2.70;;
76417;SDS011;65250;47.602;19.002;2023-03-17T10:49:58;4.43;;;2.40;;
76417;SDS011;65250;47.602;19.002;2023-03-17T10:52:31;5.50;;;2.40;;
76417;SDS011;65250;47.602;19.002;2023-03-17T10:55:05;4.88;;;2.30;;
76417;SDS011;65250;47.602;19.002;2023-03-17T10:57:34;3.95;;;2.70;;
76417;SDS011;65250;47.602;19.002;2023-03-17T11:00:03;7.43;;;3.38;;
76417;SDS011;65250;47.602;19.002;2023-03-17T11:02:44;5.63;;;2.90;;
76417;SDS011;65250;47.602;19.002;2023-03-17T11:05:21;9.93;;;3.07;;
76417;SDS011;65250;47.602;19.002;2023-03-17T11:07:56;4.78;;;2.95;;
76417;SDS011;65250;47.602;19.002;2023-03-17T11:10:40;5.07;;;3.30;;
76417;SDS011;65250;47.602;19.002;2023-03-17T11:13:07;4.63;;;2.90;;
76417;SDS011;65250;47.602;19.002;2023-03-17T11:15:36;4.50;;;2.90;;
76417;SDS011;65250;47.602;19.002;2023-03-17T11:18:18;6.57;;;2.80;;
76417;SDS011;65250;47.602;19.002;2023-03-17T11:20:53;4.82;;;2.70;;
76417;SDS011;65250;47.602;19.002;2023-03-17T11:31:50;5.87;;;3.30;;
76417;SDS011;65250;47.602;19.002;2023-03-17T11:34:21;7.10;;;2.95;;
76417;SDS011;65250;47.602;19.002;2023-03-17T11:45:32;12.47;;;3.30;;
76417;SDS011;65250;47.602;19.002;2023-03-17T11:51:15;5.35;;;3.55;;
76417;SDS011;65250;47.602;19.002;2023-03-17T11:53:55;4.82;;;3.60;;
76417;SDS011;65250;47.602;19.002;2023-03-17T12:02:05;4.53;;;3.00;;
76417;SDS011;65250;47.602;19.002;2023-03-17T12:04:39;4.95;;;3.47;;
76417;SDS011;65250;47.602;19.002;2023-03-17T12:09:45;4.88;;;3.60;;
76417;SDS011;65250;47.602;19.002;2023-03-17T12:12:15;5.63;;;3.43;;
76417;SDS011;65250;47.602;19.002;2023-03-17T12:14:52;8.75;;;3.80;;
76417;SDS011;65250;47.602;19.002;2023-03-17T12:17:24;5.35;;;3.67;;
76417;SDS011;65250;47.602;19.002;2023-03-17T12:20:02;8.27;;;3.83;;
76417;SDS011;65250;47.602;19.002;2023-03-17T12:22:46;6.28;;;3.72;;
76417;SDS011;65250;47.602;19.002;2023-03-17T12:28:26;6.85;;;4.10;;
76417;SDS011;65250;47.602;19.002;2023-03-17T12:31:04;4.53;;;3.60;;
76417;SDS011;65250;47.602;19.002;2023-03-17T12:33:35;4.25;;;3.72;;
76417;SDS011;65250;47.602;19.002;2023-03-17T12:36:10;4.72;;;3.72;;
76417;SDS011;65250;47.602;19.002;2023-03-17T12:38:41;8.63;;;3.83;;
76417;SDS011;65250;47.602;19.002;2023-03-17T12:41:20;5.40;;;4.30;;
76417;SDS011;65250;47.602;19.002;2023-03-17T12:43:58;7.07;;;3.90;;
76417;SDS011;65250;47.602;19.002;2023-03-17T12:46:51;4.93;;;4.10;;
76417;SDS011;65250;47.602;19.002;2023-03-17T12:55:14;6.18;;;3.70;;
76417;SDS011;65250;47.602;19.002;2023-03-17T12:57:43;4.57;;;3.83;;
76417;SDS011;65250;47.602;19.002;2023-03-17T13:00:18;6.95;;;4.10;;
76417;SDS011;65250;47.602;19.002;2023-03-17T13:02:52;5.60;;;4.00;;
76417;SDS011;65250;47.602;19.002;2023-03-17T13:05:33;5.77;;;4.20;;
76417;SDS011;65250;47.602;19.002;2023-03-17T13:08:03;6.50;;;4.38;;
76417;SDS011;65250;47.602;19.002;2023-03-17T13:13:10;4.38;;;3.97;;
76417;SDS011;65250;47.602;19.002;2023-03-17T13:20:38;6.20;;;4.10;;
76417;SDS011;65250;47.602;19.002;2023-03-17T13:44:56;6.43;;;4.27;;
76417;SDS011;65250;47.602;19.002;2023-03-17T13:50:14;5.70;;;4.10;;
76417;SDS011;65250;47.602;19.002;2023-03-17T14:00:46;5.03;;;4.18;;
76417;SDS011;65250;47.602;19.002;2023-03-17T14:03:28;5.68;;;3.90;;
76417;SDS011;65250;47.602;19.002;2023-03-17T14:06:06;5.68;;;4.30;;
76417;SDS011;65250;47.602;19.002;2023-03-17T14:08:35;6.07;;;3.83;;
76417;SDS011;65250;47.602;19.002;2023-03-17T14:11:12;6.07;;;3.83;;
76417;SDS011;65250;47.602;19.002;2023-03-17T14:19:40;6.93;;;4.22;;
76417;SDS011;65250;47.602;19.002;2023-03-17T14:22:25;6.38;;;4.20;;
76417;SDS011;65250;47.602;19.002;2023-03-17T14:24:52;6.80;;;4.10;;
76417;SDS011;65250;47.602;19.002;2023-03-17T14:27:22;5.82;;;5.18;;
76417;SDS011;65250;47.602;19.002;2023-03-17T14:29:50;5.53;;;4.60;;
76417;SDS011;65250;47.602;19.002;2023-03-17T14:32:18;11.30;;;4.97;;
76417;SDS011;65250;47.602;19.002;2023-03-17T14:34:47;6.78;;;4.38;;
76417;SDS011;65250;47.602;19.002;2023-03-17T14:37:21;6.33;;;4.80;;
76417;SDS011;65250;47.602;19.002;2023-03-17T14:39:52;5.03;;;4.47;;
76417;SDS011;65250;47.602;19.002;2023-03-17T14:42:25;5.93;;;4.60;;
76417;SDS011;65250;47.602;19.002;2023-03-17T14:45:03;6.50;;;4.47;;
76417;SDS011;65250;47.602;19.002;2023-03-17T14:47:39;5.85;;;4.95;;
76417;SDS011;65250;47.602;19.002;2023-03-17T14:50:23;5.17;;;4.50;;
76417;SDS011;65250;47.602;19.002;2023-03-17T14:52:53;5.00;;;4.60;;
76417;SDS011;65250;47.602;19.002;2023-03-17T14:55:20;6.47;;;4.40;;
76417;SDS011;65250;47.602;19.002;2023-03-17T14:57:48;5.32;;;4.72;;
76417;SDS011;65250;47.602;19.002;2023-03-17T15:02:59;7.93;;;4.30;;
76417;SDS011;65250;47.602;19.002;2023-03-17T15:05:35;5.60;;;4.15;;
76417;SDS011;65250;47.602;19.002;2023-03-17T15:11:02;7.72;;;4.60;;
76417;SDS011;65250;47.602;19.002;2023-03-17T15:13:31;13.63;;;5.47;;
76417;SDS011;65250;47.602;19.002;2023-03-17T15:16:17;5.87;;;4.20;;
76417;SDS011;65250;47.602;19.002;2023-03-17T15:18:47;5.93;;;4.40;;
76417;SDS011;65250;47.602;19.002;2023-03-17T15:21:25;5.70;;;4.32;;
76417;SDS011;65250;47.602;19.002;2023-03-17T15:27:05;6.53;;;3.95;;
76417;SDS011;65250;47.602;19.002;2023-03-17T15:29:41;5.57;;;4.10;;
76417;SDS011;65250;47.602;19.002;2023-03-17T15:32:17;7.95;;;3.85;;
76417;SDS011;65250;47.602;19.002;2023-03-17T15:34:46;8.35;;;4.78;;
76417;SDS011;65250;47.602;19.002;2023-03-17T15:39:45;6.55;;;3.80;;
76417;SDS011;65250;47.602;19.002;2023-03-17T15:42:12;7.30;;;3.90;;
76417;SDS011;65250;47.602;19.002;2023-03-17T15:44:39;5.72;;;3.33;;
76417;SDS011;65250;47.602;19.002;2023-03-17T15:47:06;15.75;;;3.60;;
76417;SDS011;65250;47.602;19.002;2023-03-17T15:49:33;6.68;;;3.30;;
76417;SDS011;65250;47.602;19.002;2023-03-17T15:52:00;4.32;;;3.00;;
76417;SDS011;65250;47.602;19.002;2023-03-17T15:54:27;5.83;;;3.07;;
76417;SDS011;65250;47.602;19.002;2023-03-17T15:56:54;7.72;;;2.78;;
76417;SDS011;65250;47.602;19.002;2023-03-17T15:59:21;6.55;;;2.50;;
76417;SDS011;65250;47.602;19.002;2023-03-17T16:01:47;4.97;;;2.78;;
76417;SDS011;65250;47.602;19.002;2023-03-17T16:04:14;6.75;;;2.85;;
76417;SDS011;65250;47.602;19.002;2023-03-17T16:06:43;9.73;;;2.97;;
76417;SDS011;65250;47.602;19.002;2023-03-17T16:09:12;4.32;;;2.50;;
76417;SDS011;65250;47.602;19.002;2023-03-17T16:11:41;5.43;;;2.55;;
76417;SDS011;65250;47.602;19.002;2023-03-17T16:14:08;4.60;;;2.38;;
76417;SDS011;65250;47.602;19.002;2023-03-17T16:16:36;3.08;;;2.17;;
76417;SDS011;65250;47.602;19.002;2023-03-17T16:19:04;6.50;;;2.53;;
76417;SDS011;65250;47.602;19.002;2023-03-17T16:21:32;10.60;;;2.47;;
76417;SDS011;65250;47.602;19.002;2023-03-17T16:23:58;3.95;;;2.20;;
76417;SDS011;65250;47.602;19.002;2023-03-17T16:26:25;10.10;;;2.35;;
76417;SDS011;65250;47.602;19.002;2023-03-17T16:28:52;8.60;;;2.80;;
76417;SDS011;65250;47.602;19.002;2023-03-17T16:31:25;5.07;;;2.53;;
76417;SDS011;65250;47.602;19.002;2023-03-17T16:33:56;5.80;;;2.40;;
76417;SDS011;65250;47.602;19.002;2023-03-17T16:36:23;6.95;;;2.50;;
76417;SDS011;65250;47.602;19.002;2023-03-17T16:38:50;9.80;;;2.83;;
76417;SDS011;65250;47.602;19.002;2023-03-17T16:41:24;7.15;;;2.70;;